createdAt,value
2018-08-16T00:01:39.239Z,11.50
2018-08-16T00:04:12.026Z,11.27
2018-08-16T00:06:40.870Z,11.77
2018-08-16T00:09:10.067Z,11.77
2018-08-16T00:11:39.957Z,12.37
2018-08-16T00:14:08.724Z,11.17
2018-08-16T00:16:39.539Z,11.67
2018-08-16T00:19:09.335Z,11.77
2018-08-16T00:21:40.219Z,10.63
2018-08-16T00:24:14.822Z,11.27
2018-08-16T00:26:43.699Z,12.33
2018-08-16T00:29:13.517Z,12.17
2018-08-16T00:31:43.410Z,12.20
2018-08-16T00:34:13.246Z,13.10
2018-08-16T00:36:42.143Z,11.60
2018-08-16T00:39:11.157Z,11.63
2018-08-16T00:41:42.987Z,12.47
2018-08-16T00:44:15.342Z,12.43
2018-08-16T00:46:44.375Z,12.80
2018-08-16T00:49:14.278Z,11.70
2018-08-16T00:51:43.267Z,12.90
2018-08-16T00:54:15.283Z,12.20
2018-08-16T00:56:44.093Z,12.80
2018-08-16T00:59:22.446Z,13.20
2018-08-16T01:01:53.235Z,11.90
2018-08-16T01:04:24.046Z,11.93
2018-08-16T01:06:53.887Z,11.77
2018-08-16T01:09:30.779Z,13.33
2018-08-16T01:11:59.663Z,13.13
2018-08-16T01:14:32.023Z,14.50
2018-08-16T01:17:05.775Z,14.00
2018-08-16T01:19:35.643Z,13.90
2018-08-16T01:22:08.043Z,14.17
2018-08-16T01:24:38.063Z,14.17
2018-08-16T01:27:07.863Z,15.27
2018-08-16T01:29:36.726Z,14.50
2018-08-16T01:32:06.534Z,14.57
2018-08-16T01:34:36.394Z,13.40
2018-08-16T01:37:07.431Z,14.03
2018-08-16T01:39:41.898Z,13.87
2018-08-16T01:42:16.034Z,14.23
2018-08-16T01:44:48.811Z,13.50
2018-08-16T01:47:21.511Z,14.07
2018-08-16T01:49:50.419Z,14.70
2018-08-16T01:52:19.158Z,14.07
2018-08-16T01:55:00.494Z,14.33
2018-08-16T01:57:31.286Z,14.07
2018-08-16T02:00:00.070Z,13.80
2018-08-16T02:02:32.026Z,15.73
2018-08-16T02:05:00.841Z,14.73
2018-08-16T02:07:33.610Z,14.83
2018-08-16T02:10:03.771Z,14.07
2018-08-16T02:12:32.611Z,15.10
2018-08-16T02:15:01.421Z,13.93
2018-08-16T02:17:35.111Z,14.23
2018-08-16T02:20:04.530Z,13.67
2018-08-16T02:22:46.646Z,13.80
2018-08-16T02:25:17.427Z,14.40
2018-08-16T02:27:46.226Z,14.33
2018-08-16T02:30:16.035Z,14.97
2018-08-16T02:32:50.708Z,14.77
2018-08-16T02:35:33.939Z,13.57
2018-08-16T02:38:02.787Z,14.00
2018-08-16T02:40:32.602Z,14.80
2018-08-16T02:43:07.024Z,14.60
2018-08-16T02:45:36.826Z,12.93
2018-08-16T02:48:05.638Z,13.93
2018-08-16T02:50:42.339Z,14.73
2018-08-16T02:53:11.154Z,14.73
2018-08-16T02:55:43.451Z,14.07
2018-08-16T02:58:13.234Z,14.63
2018-08-16T03:00:42.082Z,12.53
2018-08-16T03:03:13.998Z,12.90
2018-08-16T03:05:42.802Z,14.17
2018-08-16T03:08:13.619Z,13.67
2018-08-16T03:10:42.542Z,13.77
2018-08-16T03:13:11.386Z,14.33
2018-08-16T03:15:40.198Z,13.93
2018-08-16T03:18:13.991Z,13.40
2018-08-16T03:20:49.058Z,13.17
2018-08-16T03:23:17.942Z,12.93
2018-08-16T03:25:57.075Z,12.83
2018-08-16T03:28:25.942Z,12.17
2018-08-16T03:30:55.730Z,14.40
2018-08-16T03:33:32.550Z,12.93
2018-08-16T03:36:01.410Z,14.37
2018-08-16T03:38:42.114Z,16.40
2018-08-16T03:41:10.958Z,18.37
2018-08-16T03:43:43.362Z,17.83
2018-08-16T03:46:12.162Z,15.40
2018-08-16T03:48:41.025Z,15.53
2018-08-16T03:51:24.571Z,15.20
2018-08-16T03:54:13.846Z,17.50
2018-08-16T03:56:45.050Z,21.27
2018-08-16T03:59:15.918Z,14.23
2018-08-16T04:01:48.414Z,16.07
2018-08-16T04:04:19.590Z,17.07
2018-08-16T04:06:48.386Z,16.63
2018-08-16T04:09:22.822Z,16.33
2018-08-16T04:12:00.126Z,16.50
2018-08-16T04:14:37.446Z,16.03
2018-08-16T04:17:08.286Z,20.63
2018-08-16T04:19:41.140Z,17.50
2018-08-16T04:22:13.878Z,19.50
2018-08-16T04:24:42.686Z,15.17
2018-08-16T04:27:14.642Z,14.53
2018-08-16T04:29:43.490Z,13.83
2018-08-16T04:32:18.715Z,15.07
2018-08-16T04:34:51.061Z,15.20
2018-08-16T04:37:21.912Z,15.50
2018-08-16T04:39:50.802Z,15.37
2018-08-16T04:42:19.674Z,14.27
2018-08-16T04:44:49.474Z,13.67
2018-08-16T04:47:18.247Z,15.07
2018-08-16T04:50:01.119Z,14.33
2018-08-16T04:52:29.973Z,14.03
2018-08-16T04:55:00.842Z,13.30
2018-08-16T04:57:29.678Z,15.33
2018-08-16T05:00:00.541Z,13.53
2018-08-16T05:02:30.345Z,12.90
2018-08-16T05:04:59.139Z,23.70
2018-08-16T05:07:29.989Z,13.00
2018-08-16T05:09:58.881Z,13.57
2018-08-16T05:12:27.786Z,13.57
2018-08-16T05:15:02.274Z,12.90
2018-08-16T05:17:33.205Z,14.00
2018-08-16T05:20:03.030Z,15.03
2018-08-16T05:22:32.837Z,14.47
2018-08-16T05:25:02.719Z,12.90
2018-08-16T05:27:32.569Z,14.37
2018-08-16T05:30:08.569Z,13.37
2018-08-16T05:32:38.433Z,13.77
2018-08-16T05:35:08.249Z,13.03
2018-08-16T05:37:38.613Z,11.80
2018-08-16T05:40:15.271Z,12.50
2018-08-16T05:42:44.189Z,10.70
2018-08-16T05:45:14.109Z,10.40
2018-08-16T05:47:46.065Z,8.80
2018-08-16T05:50:16.877Z,9.27
2018-08-16T05:52:45.737Z,9.50
2018-08-16T05:55:15.457Z,8.90
2018-08-16T05:57:46.273Z,8.57
2018-08-16T06:00:15.857Z,9.00
2018-08-16T06:02:46.625Z,7.57
2018-08-16T06:05:15.425Z,7.90
2018-08-16T06:07:44.273Z,7.20
2018-08-16T06:10:15.160Z,8.30
2018-08-16T06:12:44.093Z,9.30
2018-08-16T06:15:13.166Z,7.47
2018-08-16T06:17:42.009Z,9.10
2018-08-16T06:20:12.169Z,8.50
2018-08-16T06:22:41.305Z,8.47
2018-08-16T06:25:11.718Z,7.97
2018-08-16T06:27:43.037Z,7.80
2018-08-16T06:30:16.603Z,7.57
2018-08-16T06:32:51.117Z,7.50
2018-08-16T06:35:19.877Z,7.60
2018-08-16T06:37:55.381Z,8.77
2018-08-16T06:40:25.153Z,7.70
2018-08-16T06:42:54.941Z,6.97
2018-08-16T06:45:23.989Z,6.93
2018-08-16T06:47:52.862Z,6.97
2018-08-16T06:50:25.634Z,6.70
2018-08-16T06:52:58.565Z,7.10
2018-08-16T06:55:31.182Z,7.07
2018-08-16T06:58:03.054Z,5.70
2018-08-16T07:00:36.677Z,7.30
2018-08-16T07:03:06.414Z,6.47
2018-08-16T07:05:38.609Z,6.50
2018-08-16T07:08:08.533Z,5.77
2018-08-16T07:10:42.202Z,5.47
2018-08-16T07:13:17.486Z,6.70
2018-08-16T07:15:51.837Z,5.50
2018-08-16T07:18:20.688Z,5.90
2018-08-16T07:20:50.406Z,5.63
2018-08-16T07:23:19.245Z,5.67
2018-08-16T07:25:50.030Z,7.13
2018-08-16T07:28:18.815Z,5.80
2018-08-16T07:30:55.522Z,6.27
2018-08-16T07:33:24.254Z,5.00
2018-08-16T07:35:54.066Z,5.37
2018-08-16T07:38:22.861Z,5.00
2018-08-16T07:41:03.758Z,4.87
2018-08-16T07:43:36.066Z,5.57
2018-08-16T07:46:08.058Z,4.80
2018-08-16T07:48:40.701Z,9.87
2018-08-16T07:51:10.544Z,4.77
2018-08-16T07:53:39.306Z,4.87
2018-08-16T07:56:08.194Z,4.80
2018-08-16T07:58:38.023Z,4.70
2018-08-16T08:01:10.058Z,4.23
2018-08-16T08:03:42.610Z,4.70
2018-08-16T08:06:11.423Z,4.77
2018-08-16T08:08:41.226Z,5.30
2018-08-16T08:11:14.126Z,4.37
2018-08-16T08:13:42.953Z,4.10
2018-08-16T08:16:18.146Z,4.67
2018-08-16T08:18:47.022Z,4.63
2018-08-16T08:21:15.950Z,4.97
2018-08-16T08:23:44.685Z,4.20
2018-08-16T08:26:16.542Z,4.80
2018-08-16T08:28:45.378Z,4.57
2018-08-16T08:31:14.149Z,4.13
2018-08-16T08:33:42.986Z,3.87
2018-08-16T08:36:23.106Z,3.73
2018-08-16T08:38:52.993Z,3.60
2018-08-16T08:41:22.606Z,4.17
2018-08-16T08:44:02.878Z,4.47
2018-08-16T08:46:31.713Z,3.53
2018-08-16T08:49:07.046Z,3.43
2018-08-16T08:51:36.853Z,3.30
2018-08-16T08:54:52.822Z,3.90
2018-08-16T08:57:37.370Z,4.10
2018-08-16T09:00:16.570Z,3.10
2018-08-16T09:02:46.337Z,3.67
2018-08-16T09:05:15.070Z,3.57
2018-08-16T09:07:44.881Z,3.83
2018-08-16T09:10:54.486Z,3.77
2018-08-16T09:13:36.561Z,3.33
2018-08-16T09:16:15.791Z,3.30
2018-08-16T09:18:44.662Z,3.80
2018-08-16T09:21:14.911Z,3.43
2018-08-16T09:23:48.137Z,3.10
2018-08-16T09:26:24.314Z,3.40
2018-08-16T09:28:57.826Z,2.70
2018-08-16T09:31:38.101Z,3.50
2018-08-16T09:34:19.287Z,3.97
2018-08-16T09:36:53.628Z,5.33
2018-08-16T09:39:28.965Z,3.67
2018-08-16T09:42:09.674Z,2.90
2018-08-16T09:44:39.446Z,4.03
2018-08-16T09:47:20.682Z,4.30
2018-08-16T09:49:50.506Z,3.13
2018-08-16T09:52:19.914Z,3.63
2018-08-16T09:54:50.030Z,2.63
2018-08-16T09:57:25.331Z,2.50
2018-08-16T09:59:55.103Z,2.73
2018-08-16T10:02:31.866Z,2.30
2018-08-16T10:05:00.586Z,2.73
2018-08-16T10:07:34.070Z,2.50
2018-08-16T10:13:01.817Z,2.40
2018-08-16T10:15:31.563Z,2.47
2018-08-16T10:18:01.362Z,2.70
2018-08-16T10:20:30.206Z,2.53
2018-08-16T10:23:11.378Z,3.20
2018-08-16T10:25:41.142Z,2.40
2018-08-16T10:28:09.991Z,2.70
2018-08-16T10:30:40.584Z,2.20
2018-08-16T10:33:17.685Z,2.40
2018-08-16T10:35:47.459Z,2.77
2018-08-16T10:38:16.258Z,2.40
2018-08-16T10:40:44.990Z,2.53
2018-08-16T10:43:13.830Z,2.40
2018-08-16T10:45:42.602Z,4.13
2018-08-16T10:48:13.326Z,3.07
2018-08-16T10:50:42.161Z,2.20
2018-08-16T10:53:16.479Z,2.53
2018-08-16T10:55:45.270Z,3.23
2018-08-16T10:58:14.021Z,3.07
2018-08-16T11:00:49.912Z,2.60
2018-08-16T11:03:23.756Z,4.67
2018-08-16T11:05:53.227Z,3.87
2018-08-16T11:08:24.614Z,2.87
2018-08-16T11:10:55.406Z,2.90
2018-08-16T11:13:26.121Z,4.17
2018-08-16T11:15:54.918Z,2.93
2018-08-16T11:18:31.225Z,3.80
2018-08-16T11:21:02.005Z,3.53
2018-08-16T11:23:35.296Z,4.83
2018-08-16T11:26:04.110Z,4.63
2018-08-16T11:28:32.870Z,2.40
2018-08-16T11:31:06.954Z,2.80
2018-08-16T11:33:35.785Z,2.30
2018-08-16T11:36:04.542Z,2.53
2018-08-16T11:38:34.377Z,2.77
2018-08-16T11:41:04.102Z,5.20
2018-08-16T11:43:36.181Z,2.57
2018-08-16T11:46:10.485Z,3.93
2018-08-16T11:48:41.213Z,2.50
2018-08-16T11:51:14.482Z,3.70
2018-08-16T11:53:44.190Z,2.77
2018-08-16T11:56:12.985Z,2.97
2018-08-16T11:58:41.770Z,2.30
2018-08-16T12:01:16.051Z,2.40
2018-08-16T12:03:44.782Z,2.50
2018-08-16T12:06:15.563Z,2.60
2018-08-16T12:08:48.134Z,2.47
2018-08-16T12:11:18.893Z,2.23
2018-08-16T12:13:47.709Z,2.27
2018-08-16T12:16:17.522Z,2.50
2018-08-16T12:18:46.346Z,3.00
2018-08-16T12:21:21.042Z,2.87
2018-08-16T12:23:49.782Z,2.27
2018-08-16T12:26:19.594Z,3.90
2018-08-16T12:28:49.367Z,2.50
2018-08-16T12:31:19.058Z,1.83
2018-08-16T12:33:51.282Z,2.30
2018-08-16T12:36:21.050Z,2.10
2018-08-16T12:38:51.038Z,3.40
2018-08-16T12:41:21.779Z,2.70
2018-08-16T12:43:50.510Z,2.40
2018-08-16T12:46:22.889Z,2.60
2018-08-16T12:48:52.593Z,7.00
2018-08-16T12:51:21.317Z,2.50
2018-08-16T12:53:59.922Z,2.50
2018-08-16T12:56:28.750Z,2.97
2018-08-16T12:58:57.597Z,4.10
2018-08-16T13:01:28.409Z,2.50
2018-08-16T13:03:57.324Z,2.50
2018-08-16T13:06:26.057Z,2.57
2018-08-16T13:08:54.861Z,2.50
2018-08-16T13:11:31.190Z,2.30
2018-08-16T13:14:03.609Z,2.67
2018-08-16T13:16:32.374Z,4.47
2018-08-16T13:19:02.113Z,2.20
2018-08-16T13:21:30.949Z,2.60
2018-08-16T13:24:00.565Z,2.30
2018-08-16T13:26:29.385Z,2.80
2018-08-16T13:29:01.321Z,2.10
2018-08-16T13:31:33.181Z,3.60
2018-08-16T13:34:04.085Z,2.43
2018-08-16T13:36:43.261Z,2.23
2018-08-16T13:39:28.770Z,2.23
2018-08-16T13:41:59.405Z,2.47
2018-08-16T13:44:28.462Z,5.23
2018-08-16T13:46:58.282Z,2.53
2018-08-16T13:49:28.078Z,2.77
2018-08-16T13:51:57.873Z,3.10
2018-08-16T13:54:32.750Z,4.03
2018-08-16T13:57:01.578Z,3.30
2018-08-16T13:59:33.685Z,2.50
2018-08-16T14:02:03.477Z,3.20
2018-08-16T14:04:36.206Z,1.87
2018-08-16T14:07:05.065Z,3.20
2018-08-16T14:09:39.673Z,2.20
2018-08-16T14:12:20.810Z,2.27
2018-08-16T14:14:50.582Z,3.10
2018-08-16T14:17:20.357Z,2.80
2018-08-16T14:20:00.565Z,2.23
2018-08-16T14:22:33.053Z,2.30
2018-08-16T14:25:21.013Z,2.20
2018-08-16T14:27:53.096Z,4.10
2018-08-16T14:30:23.961Z,2.30
2018-08-16T14:32:52.685Z,2.17
2018-08-16T14:35:25.593Z,2.13
2018-08-16T14:37:55.433Z,2.90
2018-08-16T14:40:24.629Z,2.70
2018-08-16T14:42:57.823Z,5.67
2018-08-16T14:45:26.669Z,3.07
2018-08-16T14:48:04.753Z,2.73
2018-08-16T14:50:33.474Z,2.20
2018-08-16T14:53:03.301Z,2.50
2018-08-16T14:55:33.025Z,2.47
2018-08-16T14:58:05.349Z,2.10
2018-08-16T15:00:37.833Z,3.00
2018-08-16T15:03:09.722Z,2.00
2018-08-16T15:05:38.463Z,2.40
2018-08-16T15:08:07.648Z,2.47
2018-08-16T15:10:41.048Z,2.50
2018-08-16T15:13:15.233Z,2.57
2018-08-16T15:15:45.949Z,2.70
2018-08-16T15:18:15.669Z,2.20
2018-08-16T15:20:45.433Z,2.20
2018-08-16T15:23:16.125Z,8.50
2018-08-16T15:25:45.903Z,3.20
2018-08-16T15:28:15.737Z,2.80
2018-08-16T15:30:45.533Z,3.00
2018-08-16T15:33:15.257Z,6.77
2018-08-16T15:35:51.636Z,2.40
2018-08-16T15:38:20.397Z,2.80
2018-08-16T15:40:49.155Z,5.13
2018-08-16T15:43:19.005Z,2.43
2018-08-16T15:45:48.789Z,3.53
2018-08-16T15:48:23.953Z,2.90
2018-08-16T15:50:52.708Z,2.40
2018-08-16T15:53:21.500Z,3.90
2018-08-16T15:55:55.112Z,2.47
2018-08-16T15:58:27.074Z,2.90
2018-08-16T16:01:06.323Z,4.60
2018-08-16T16:03:38.584Z,3.30
2018-08-16T16:06:07.695Z,6.10
2018-08-16T16:08:38.480Z,5.60
2018-08-16T16:11:10.880Z,6.63
2018-08-16T16:13:39.645Z,5.10
2018-08-16T16:16:16.273Z,3.23
2018-08-16T16:18:56.105Z,6.13
2018-08-16T16:21:25.888Z,6.50
2018-08-16T16:23:54.665Z,4.10
2018-08-16T16:26:29.363Z,4.43
2018-08-16T16:29:00.200Z,3.60
2018-08-16T16:31:29.761Z,9.07
2018-08-16T16:33:58.756Z,3.60
2018-08-16T16:36:29.001Z,13.63
2018-08-16T16:38:57.748Z,6.53
2018-08-16T16:41:38.212Z,2.50
2018-08-16T16:44:16.894Z,4.70
2018-08-16T16:46:50.404Z,4.30
2018-08-16T16:49:26.325Z,8.70
2018-08-16T16:51:58.712Z,5.33
2018-08-16T16:54:27.941Z,6.30
2018-08-16T16:56:56.808Z,2.93
2018-08-16T16:59:31.739Z,2.43
2018-08-16T17:02:01.548Z,2.70
2018-08-16T17:04:32.612Z,5.03
2018-08-16T17:07:07.384Z,2.87
2018-08-16T17:09:42.644Z,2.47
2018-08-16T17:12:11.500Z,3.00
2018-08-16T17:14:41.341Z,3.13
2018-08-16T17:17:10.328Z,2.50
2018-08-16T17:19:40.148Z,2.53
2018-08-16T17:22:09.258Z,3.23
2018-08-16T17:24:38.164Z,3.73
2018-08-16T17:27:12.897Z,2.43
2018-08-16T17:29:46.377Z,2.67
2018-08-16T17:32:20.105Z,3.00
2018-08-16T17:34:52.021Z,2.90
2018-08-16T17:37:20.852Z,4.50
2018-08-16T17:39:54.353Z,3.73
2018-08-16T17:42:26.320Z,6.13
2018-08-16T17:44:57.057Z,2.63
2018-08-16T17:47:26.875Z,3.00
2018-08-16T17:49:56.573Z,2.73
2018-08-16T17:52:25.357Z,2.93
2018-08-16T17:54:56.093Z,2.70
2018-08-16T17:57:24.912Z,2.17
2018-08-16T17:59:53.697Z,2.37
2018-08-16T18:02:22.489Z,3.07
2018-08-16T18:04:54.925Z,2.90
2018-08-16T18:07:23.714Z,2.73
2018-08-16T18:10:05.197Z,2.90
2018-08-16T18:12:35.936Z,3.47
2018-08-16T18:15:06.764Z,3.27
2018-08-16T18:17:35.601Z,10.40
2018-08-16T18:20:05.128Z,3.50
2018-08-16T18:22:34.245Z,5.10
2018-08-16T18:25:03.080Z,9.33
2018-08-16T18:27:33.197Z,5.73
2018-08-16T18:30:08.109Z,3.90
2018-08-16T18:32:38.956Z,3.77
2018-08-16T18:35:07.793Z,3.50
2018-08-16T18:37:36.489Z,6.47
2018-08-16T18:40:17.624Z,7.77
2018-08-16T18:42:46.372Z,7.40
2018-08-16T18:45:15.157Z,4.03
2018-08-16T18:47:43.952Z,4.37
2018-08-16T18:50:12.740Z,5.23
2018-08-16T18:52:41.525Z,8.43
2018-08-16T18:55:23.688Z,8.50
2018-08-16T18:57:52.512Z,3.13
2018-08-16T19:00:26.529Z,3.40
2018-08-16T19:03:00.448Z,5.00
2018-08-16T19:05:35.185Z,6.20
2018-08-16T19:08:09.804Z,2.93
2018-08-16T19:10:38.568Z,2.73
2018-08-16T19:13:10.854Z,2.70
2018-08-16T19:15:40.657Z,3.20
2018-08-16T19:18:09.460Z,3.10
2018-08-16T19:20:38.225Z,3.07
2018-08-16T19:23:10.224Z,5.07
2018-08-16T19:25:39.014Z,2.73
2018-08-16T19:28:07.888Z,6.00
2018-08-16T19:30:40.540Z,2.67
2018-08-16T19:33:09.344Z,5.67
2018-08-16T19:35:39.203Z,4.17
2018-08-16T19:38:07.960Z,4.03
2018-08-16T19:40:37.744Z,3.27
2018-08-16T19:43:19.645Z,4.60
2018-08-16T19:45:49.416Z,3.83
2018-08-16T19:48:18.268Z,3.40
2018-08-16T19:50:50.358Z,2.90
2018-08-16T19:53:20.189Z,2.93
2018-08-16T19:55:49.936Z,4.07
2018-08-16T19:58:18.776Z,2.90
2018-08-16T20:00:48.204Z,3.03
2018-08-16T20:03:21.836Z,3.50
2018-08-16T20:05:57.092Z,3.23
2018-08-16T20:08:29.560Z,3.87
2018-08-16T20:10:58.339Z,3.33
2018-08-16T20:13:27.112Z,3.23
2018-08-16T20:15:55.924Z,5.13
2018-08-16T20:18:24.728Z,3.57
2018-08-16T20:20:56.853Z,3.53
2018-08-16T20:23:29.464Z,3.80
2018-08-16T20:25:58.200Z,5.47
2018-08-16T20:28:27.032Z,4.90
2018-08-16T20:30:55.833Z,3.07
2018-08-16T20:33:29.199Z,3.50
2018-08-16T20:36:01.284Z,4.67
2018-08-16T20:38:33.232Z,3.20
2018-08-16T20:41:03.136Z,5.10
2018-08-16T20:43:33.011Z,4.47
2018-08-16T20:46:03.831Z,4.77
2018-08-16T20:48:36.396Z,6.33
2018-08-16T20:51:05.239Z,4.97
2018-08-16T20:53:38.144Z,6.60
2018-08-16T20:56:10.407Z,6.73
2018-08-16T20:58:39.261Z,4.83
2018-08-16T21:01:18.608Z,4.33
2018-08-16T21:03:53.639Z,3.80
2018-08-16T21:06:22.991Z,9.40
2018-08-16T21:08:51.786Z,4.40
2018-08-16T21:11:26.196Z,3.83
2018-08-16T21:13:58.983Z,4.23
2018-08-16T21:16:27.775Z,5.70
2018-08-16T21:18:59.764Z,3.50
2018-08-16T21:21:29.595Z,3.37
2018-08-16T21:24:02.585Z,4.10
2018-08-16T21:26:33.420Z,4.30
2018-08-16T21:29:04.252Z,7.97
2018-08-16T21:31:33.111Z,3.80
2018-08-16T21:34:02.947Z,6.63
2018-08-16T21:36:31.835Z,5.10
2018-08-16T21:39:06.831Z,8.27
2018-08-16T21:41:36.667Z,5.77
2018-08-16T21:44:05.593Z,7.03
2018-08-16T21:46:34.544Z,6.00
2018-08-16T21:49:03.355Z,6.23
2018-08-16T21:51:32.232Z,4.93
2018-08-16T21:54:01.068Z,5.90
2018-08-16T21:56:33.375Z,5.70
2018-08-16T21:59:02.211Z,5.80
2018-08-16T22:01:34.115Z,6.27
2018-08-16T22:04:02.927Z,5.00
2018-08-16T22:06:43.131Z,8.53
2018-08-16T22:09:13.656Z,7.03
2018-08-16T22:11:43.588Z,8.83
2018-08-16T22:14:12.408Z,6.37
2018-08-16T22:16:41.275Z,5.73
2018-08-16T22:19:10.112Z,6.37
2018-08-16T22:21:40.015Z,4.70
2018-08-16T22:24:09.843Z,5.97
2018-08-16T22:26:39.927Z,7.60
2018-08-16T22:29:16.923Z,5.63
2018-08-16T22:31:53.352Z,7.47
2018-08-16T22:34:24.228Z,5.13
2018-08-16T22:36:55.011Z,5.30
2018-08-16T22:39:24.851Z,6.30
2018-08-16T22:42:01.110Z,5.03
2018-08-16T22:44:31.940Z,4.40
2018-08-16T22:47:04.427Z,4.20
2018-08-16T22:49:37.751Z,5.53
2018-08-16T22:52:08.528Z,4.93
2018-08-16T22:54:37.364Z,5.27
2018-08-16T22:57:08.088Z,4.80
2018-08-16T22:59:38.927Z,5.07
2018-08-16T23:02:11.412Z,5.10
2018-08-16T23:04:42.199Z,5.43
2018-08-16T23:07:11.039Z,5.00
2018-08-16T23:09:40.911Z,5.20
2018-08-16T23:12:09.695Z,5.03
2018-08-16T23:14:38.549Z,7.83
2018-08-16T23:17:10.779Z,4.17
2018-08-16T23:19:44.595Z,5.10
2018-08-16T23:22:15.411Z,4.80
2018-08-16T23:24:45.259Z,5.50
2018-08-16T23:27:16.055Z,4.93
2018-08-16T23:29:50.627Z,5.57
2018-08-16T23:32:23.512Z,4.37
2018-08-16T23:34:52.303Z,4.80
2018-08-16T23:37:21.120Z,7.67
2018-08-16T23:39:56.061Z,4.23
2018-08-16T23:42:25.836Z,4.67
2018-08-16T23:45:05.020Z,4.30
2018-08-16T23:47:35.811Z,4.67
2018-08-16T23:50:10.211Z,4.47
2018-08-16T23:52:38.959Z,4.30
2018-08-16T23:55:08.495Z,5.00
2018-08-16T23:57:38.348Z,4.57
